Latest Weather Observations for Stenhouse Bay

IDS60801

Issued at 10:31 pm CDT Friday 27 March 2015 (issued every 30 minutes, with the page automatically refreshed every 10 minutes)

About weather observations | Map of weather stations | Latest weather observations for SA | Other Formats
Station Details ID: 022049 Name: STENHOUSE BAY Lat: -35.28 Lon: 136.94 Height: 42.0 m
Data from the previous 72 hours. | See also: Recent months at Stenhouse Bay
Date/Time
CDT
Temp
°C
App
Temp
°C
Dew
Point
Rel
Hum
%
Delta-T
°C
Wind Press
QNH
hPa
Press
MSL
hPa
Rain
since 9 am
mm
Dir
 
Spd
km/h
Gust
km/h
Spd
kts
Gust
kts
27/10:30pm 13.4 11.0 12.6 95 0.4 SE 17 22 9 12 1027.4 1027.3 2.4
27/10:00pm 13.9 12.8 13.0 94 0.5 SE 11 17 6 9 1027.6 1027.5 2.0
27/09:30pm 13.8 13.4 12.9 94 0.5 SSE 7 11 4 6 1027.5 1027.4 1.6
27/09:00pm 13.9 12.7 12.8 93 0.6 SSE 11 17 6 9 1027.5 1027.4 1.6
27/08:30pm 14.2 11.8 12.6 90 0.9 SE 17 24 9 13 1027.2 1027.1 0.6
27/08:00pm 15.2 12.0 11.8 80 1.8 S 20 24 11 13 1026.9 1026.8 0.2
27/07:30pm 15.5 12.4 12.1 80 1.8 S 20 24 11 13 1026.6 1026.5 0.2
27/07:00pm 15.7 12.7 11.9 78 2.1 S 19 24 10 13 1026.7 1026.6 0.2
27/06:30pm 16.4 13.7 11.8 74 2.5 SSW 17 24 9 13 1026.6 1026.5 0.2
27/06:00pm 17.4 15.1 10.5 64 3.7 SSW 13 20 7 11 1026.7 1026.6 0.2
27/05:30pm 17.2 14.2 10.6 65 3.5 SSW 17 24 9 13 1026.6 1026.5 0.2
27/05:00pm 17.9 15.4 11.0 64 3.7 SSW 15 20 8 11 1026.8 1026.7 0.2
27/04:30pm 18.4 16.2 10.8 61 4.1 SW 13 20 7 11 1026.8 1026.7 0.2
27/04:00pm 18.2 15.6 10.6 61 4.1 SW 15 20 8 11 1027.0 1026.9 0.2
27/03:30pm 18.2 16.0 10.8 62 4.0 SW 13 20 7 11 1027.2 1027.1 0.2
27/03:00pm 18.7 16.6 11.0 61 4.2 SSW 13 17 7 9 1027.4 1027.3 0.2
27/02:30pm 18.3 16.1 10.9 62 4.0 SSW 13 17 7 9 1027.7 1027.6 0.2
27/02:00pm 17.8 15.7 9.7 59 4.3 SSW 11 17 6 9 1028.2 1028.1 0.2
27/01:30pm 17.8 16.3 10.4 62 3.9 SSW 9 13 5 7 1028.6 1028.5 0.2
27/01:00pm 17.0 15.9 10.6 66 3.4 SSW 7 11 4 6 1028.9 1028.8 0.0
27/12:30pm 16.8 15.5 11.1 69 3.1 SW 9 15 5 8 1029.4 1029.3 0.0
27/12:00pm 16.9 14.7 9.3 61 3.9 S 11 15 6 8 1029.7 1029.6 0.0
27/11:30am 17.0 14.9 9.9 63 3.7 SSE 11 15 6 8 1030.1 1029.9 0.0
27/11:00am 16.6 14.4 9.5 63 3.7 SSE 11 15 6 8 1030.1 1029.9 0.0
27/10:30am 16.7 14.3 9.9 64 3.6 SSE 13 19 7 10 1030.1 1029.9 0.0
27/10:00am 16.6 14.7 10.5 67 3.2 SSW 11 17 6 9 1030.1 1029.9 0.0
27/09:30am 15.1 13.4 9.9 71 2.7 SSW 9 13 5 7 1029.9 1029.8 0.0
27/09:00am 14.0 12.5 10.6 80 1.8 SSW 9 15 5 8 1029.7 1029.6 0.0
27/08:30am 13.2 11.7 10.4 83 1.4 SSW 9 13 5 7 1029.6 1029.5 0.0
27/08:00am 12.8 11.4 11.0 89 0.9 SW 9 15 5 8 1029.3 1029.2 0.0
27/07:30am 12.9 9.4 11.0 88 1.0 SW 20 30 11 16 1029.1 1029.0 0.0
27/07:00am 14.1 10.6 8.7 70 2.7 S 17 24 9 13 1028.7 1028.6 0.0
27/06:30am 14.2 10.1 8.6 69 2.8 SSW 20 28 11 15 1028.4 1028.3 0.0
27/06:00am 14.3 10.5 7.4 63 3.4 SSW 17 24 9 13 1028.2 1028.1 0.0
27/05:30am 14.5 10.2 9.3 71 2.6 S 22 30 12 16 1028.0 1027.9 0.0
27/05:00am 14.5 11.0 8.9 69 2.8 SSW 17 26 9 14 1028.0 1027.9 0.0
27/04:30am 14.3 11.5 8.7 69 2.8 SW 13 17 7 9 1028.1 1028.0 0.0
27/04:00am 14.6 11.0 8.3 66 3.2 SSW 17 24 9 13 1028.1 1028.0 0.0
27/03:30am 14.4 10.0 7.5 63 3.4 SSW 20 28 11 15 1028.1 1028.0 0.0
27/03:00am 14.6 9.9 9.4 71 2.7 SSW 24 33 13 18 1028.3 1028.2 0.0
27/02:30am 14.6 11.3 7.9 64 3.3 SSW 15 22 8 12 1028.3 1028.2 0.0
27/02:00am 14.8 10.5 7.8 63 3.5 SSW 20 26 11 14 1028.4 1028.3 0.0
27/01:30am 14.7 10.1 6.5 58 3.9 SSW 20 26 11 14 1028.4 1028.3 0.0
27/01:00am 14.9 10.6 7.7 62 3.6 SSW 20 28 11 15 1028.6 1028.5 0.0
27/12:30am 14.8 11.1 8.1 64 3.3 SSW 17 26 9 14 1028.7 1028.6 0.0
27/12:00am 14.7 10.6 7.7 63 3.5 SSW 19 28 10 15 1028.8 1028.7 0.0
 
Date/Time
CDT
Temp
°C
App
Temp
°C
Dew
Point
Rel
Hum
%
Delta-T
°C
Wind Press
QNH
hPa
Press
MSL
hPa
Rain
since 9 am
mm
Dir
 
Spd
km/h
Gust
km/h
Spd
kts
Gust
kts
26/11:30pm 14.8 10.3 8.5 66 3.2 SSW 22 32 12 17 1028.8 1028.7 0.0
26/11:00pm 14.8 11.0 5.9 55 4.3 SSW 15 24 8 13 1028.9 1028.8 0.0
26/10:30pm 14.9 10.3 6.5 57 4.0 SSW 20 28 11 15 1029.0 1028.9 0.0
26/10:00pm 14.7 9.9 5.5 54 4.4 SSW 20 32 11 17 1029.0 1028.9 0.0
26/09:30pm 14.5 9.6 6.8 60 3.7 S 22 28 12 15 1028.9 1028.8 0.0
26/09:00pm 14.6 10.0 8.1 65 3.2 SSW 22 30 12 16 1028.9 1028.8 0.0
26/08:30pm 14.5 9.1 8.0 65 3.2 SSW 26 39 14 21 1028.8 1028.7 0.0
26/08:00pm 14.8 10.3 6.9 59 3.9 SSW 20 30 11 16 1028.6 1028.5 0.0
26/07:30pm 14.9 10.2 6.2 56 4.2 SSW 20 30 11 16 1028.4 1028.3 0.0
26/07:00pm 15.3 10.0 6.8 57 4.2 SSW 24 35 13 19 1028.2 1028.1 0.0
26/06:30pm 15.0 8.9 6.8 58 4.0 SSW 28 37 15 20 1027.9 1027.8 0.0
26/06:00pm 16.5 11.2 6.9 53 4.7 SW 24 37 13 20 1027.6 1027.5 0.0
26/05:30pm 16.4 10.4 5.4 48 5.2 SW 26 33 14 18 1027.4 1027.3 0.0
26/05:00pm 15.4 10.0 6.4 55 4.4 SW 24 33 13 18 1027.4 1027.3 0.0
26/04:30pm 15.8 10.0 6.3 53 4.6 SW 26 37 14 20 1027.3 1027.2 0.0
26/04:00pm 15.9 9.6 5.8 51 4.9 SW 28 39 15 21 1027.3 1027.2 0.0
26/03:30pm 17.5 12.1 6.4 48 5.4 SW 24 37 13 20 1027.3 1027.2 0.0
26/03:00pm 17.1 11.1 3.1 39 6.4 SW 24 35 13 19 1027.4 1027.3 0.0
26/02:30pm 17.1 11.0 4.8 44 5.8 SW 26 39 14 21 1027.4 1027.3 0.0
26/02:00pm 16.9 10.2 5.5 47 5.5 SW 30 43 16 23 1027.4 1027.3 0.0
26/01:30pm 15.7 10.1 7.2 57 4.2 SW 26 39 14 21 1027.6 1027.5 0.0
26/01:00pm 16.3 10.4 7.3 55 4.5 SW 28 43 15 23 1027.6 1027.5 0.0
26/12:30pm 16.4 11.2 7.1 54 4.6 SW 24 35 13 19 1027.6 1027.5 0.0
26/12:00pm 14.9 8.3 6.2 56 4.2 SW 30 43 16 23 1027.7 1027.6 0.0
26/11:47am 15.4 9.6 7.9 61 3.8 SW 28 46 15 25 1027.5 1027.4 0.0
26/11:30am 16.9 11.2 6.7 51 5.0 SSW 26 35 14 19 1027.4 1027.3 0.0
26/11:00am 15.8 9.6 6.3 53 4.6 SSW 28 46 15 25 1027.4 1027.3 0.0
26/10:30am 14.8 8.6 6.1 56 4.2 SSW 28 41 15 22 1027.2 1027.1 0.0
26/10:00am 14.0 8.6 7.8 66 3.1 SW 26 43 14 23 1026.9 1026.8 0.0
26/09:30am 14.6 8.8 6.4 58 3.9 SSW 26 43 14 23 1026.4 1026.3 0.0
26/09:00am 14.4 7.8 6.0 57 4.0 SSW 30 41 16 22 1025.9 1025.8 1.0
26/08:30am 14.3 8.8 5.9 57 4.0 SW 24 41 13 22 1025.4 1025.3 1.0
26/08:00am 14.1 8.2 6.0 58 3.9 SW 26 44 14 24 1025.1 1025.0 1.0
26/07:30am 13.9 8.0 5.8 58 3.8 SW 26 44 14 24 1024.7 1024.6 1.0
26/07:00am 13.7 7.9 6.1 60 3.6 SW 26 43 14 23 1024.2 1024.1 1.0
26/06:30am 13.6 7.6 5.5 58 3.8 SW 26 39 14 21 1023.9 1023.8 1.0
26/06:00am 13.8 7.8 6.9 63 3.3 SW 28 41 15 22 1023.6 1023.5 1.0
26/05:30am 13.6 6.1 6.5 62 3.4 SW 35 48 19 26 1023.3 1023.2 1.0
26/05:00am 13.8 7.3 6.7 62 3.4 SW 30 44 16 24 1023.1 1023.0 1.0
26/04:30am 13.9 6.5 5.0 55 4.1 SSW 33 48 18 26 1023.0 1022.9 1.0
26/04:00am 13.6 7.0 6.2 61 3.5 SSW 30 43 16 23 1023.1 1023.0 1.0
26/03:30am 13.8 7.1 5.4 57 3.9 SW 30 48 16 26 1023.1 1023.0 1.0
26/03:22am 13.8 7.1 5.4 57 4.0 SW 30 48 16 26 1023.0 1022.9 1.0
26/03:00am 13.9 7.7 6.0 59 3.7 SSW 28 44 15 24 1023.0 1022.9 1.0
26/02:30am 13.9 7.2 5.8 58 3.8 SSW 30 46 16 25 1023.0 1022.9 1.0
26/02:00am 13.9 7.1 5.0 55 4.2 SW 30 44 16 24 1022.9 1022.8 1.0
26/01:30am 13.8 6.5 5.4 57 3.9 SW 33 50 18 27 1022.8 1022.7 1.0
26/01:04am 13.6 7.1 6.7 63 3.3 SW 30 48 16 26 1022.9 1022.8 1.0
26/01:00am 13.7 6.9 6.8 63 3.3 SW 32 50 17 27 1022.9 1022.8 1.0
26/12:30am 13.7 7.1 6.1 60 3.6 SW 30 50 16 27 1022.5 1022.4 1.0
26/12:22am 13.4 7.1 7.4 67 2.9 SW 30 50 16 27 1022.5 1022.4 1.0
26/12:00am 13.9 8.0 7.7 66 3.1 SSW 28 41 15 22 1022.6 1022.5 1.0
 
Date/Time
CDT
Temp
°C
App
Temp
°C
Dew
Point
Rel
Hum
%
Delta-T
°C
Wind Press
QNH
hPa
Press
MSL
hPa
Rain
since 9 am
mm
Dir
 
Spd
km/h
Gust
km/h
Spd
kts
Gust
kts
25/11:41pm 14.3 7.8 6.4 59 3.8 SW 30 48 16 26 1022.5 1022.4 1.0
25/11:30pm 14.4 7.7 5.7 56 4.1 SW 30 43 16 23 1022.4 1022.3 1.0
25/11:00pm 14.3 7.6 5.7 56 4.1 SW 30 44 16 24 1022.2 1022.1 1.0
25/10:30pm 14.1 7.2 7.2 63 3.4 SSW 33 46 18 25 1022.1 1022.0 1.0
25/10:00pm 14.3 7.1 4.9 53 4.4 SW 32 50 17 27 1021.9 1021.8 1.0
25/09:55pm 14.3 7.3 5.9 57 4.0 SW 32 50 17 27 1022.0 1021.9 1.0
25/09:30pm 14.1 7.0 5.7 57 4.0 SW 32 48 17 26 1021.5 1021.4 1.0
25/09:00pm 13.4 6.4 6.7 64 3.2 SW 33 59 18 32 1021.3 1021.2 1.0
25/08:30pm 14.1 6.9 5.7 57 4.0 SW 33 54 18 29 1020.8 1020.7 1.0
25/08:29pm 14.1 6.8 5.5 56 4.1 SW 33 54 18 29 1020.8 1020.7 1.0
25/08:00pm 14.2 5.2 4.8 53 4.4 SW 41 56 22 30 1020.3 1020.2 1.0
25/07:52pm 14.4 6.3 5.2 54 4.3 SW 37 56 20 30 1020.1 1020.0 1.0
25/07:30pm 14.5 5.9 4.8 52 4.5 SW 39 54 21 29 1019.8 1019.7 1.0
25/07:00pm 14.8 6.8 5.9 55 4.3 SW 37 50 20 27 1019.4 1019.3 1.0
25/06:30pm 15.1 6.4 5.9 54 4.4 SW 41 56 22 30 1019.0 1018.9 1.0
25/06:00pm 15.8 7.2 6.5 54 4.5 SW 41 57 22 31 1018.5 1018.4 1.0
25/05:50pm 15.3 7.2 6.8 57 4.2 SW 39 59 21 32 1018.3 1018.2 1.0
25/05:30pm 14.9 7.0 7.7 62 3.6 SW 39 56 21 30 1018.2 1018.1 1.0
25/05:18pm 14.6 7.9 8.1 65 3.3 SW 33 54 18 29 1018.0 1017.9 1.0
25/05:00pm 13.5 7.3 9.9 79 1.9 SW 33 48 18 26 1017.9 1017.8 1.0
25/04:30pm 13.7 6.5 11.9 89 1.0 SW 41 61 22 33 1017.6 1017.5 0.8
25/04:00pm 13.8 5.1 12.5 92 0.7 SW 50 65 27 35 1017.0 1016.9 0.4
25/03:30pm 14.7 8.7 13.2 91 0.8 WSW 37 65 20 35 1016.3 1016.2 0.2
25/03:25pm 15.3 10.3 14.0 92 0.7 W 33 57 18 31 1016.1 1016.0 0.2
25/03:02pm 19.0 12.1 10.3 57 4.7 WNW 37 63 20 34 1016.2 1016.1 0.0
25/03:00pm 19.0 12.4 10.0 56 4.8 WNW 35 50 19 27 1016.1 1016.0 0.0
25/02:30pm 19.9 13.6 8.9 49 5.8 WNW 32 52 17 28 1016.3 1016.2 0.0
25/02:23pm 19.7 13.1 8.7 49 5.8 WNW 33 52 18 28 1016.4 1016.3 0.0
25/02:00pm 19.7 12.9 9.3 51 5.5 NW 35 52 19 28 1016.8 1016.7 0.0
25/01:30pm 20.1 12.9 9.1 49 5.8 NW 37 52 20 28 1017.2 1017.1 0.0
25/01:00pm 20.4 13.2 9.3 49 5.9 NW 37 57 20 31 1017.7 1017.6 0.0
25/12:51pm 19.8 12.5 8.8 49 5.8 NW 37 56 20 30 1017.8 1017.7 0.0
25/12:30pm 19.5 12.5 8.5 49 5.7 NW 35 46 19 25 1018.0 1017.9 0.0
25/12:00pm 19.3 12.3 8.3 49 5.7 NW 35 48 19 26 1018.2 1018.1 0.0
25/11:30am 17.9 10.9 8.5 54 4.8 NW 35 54 19 29 1018.4 1018.3 0.0
25/11:13am 18.1 12.4 8.4 53 5.0 NW 28 46 15 25 1018.4 1018.3 0.0
25/11:00am 18.4 13.0 8.1 51 5.3 NW 26 37 14 20 1018.6 1018.5 0.0
25/10:30am 15.2 13.1 9.6 69 2.9 NW 11 17 6 9 1019.1 1019.0 0.0
25/10:00am 16.3 11.2 7.5 56 4.4 WNW 24 39 13 21 1019.4 1019.3 0.0
25/09:30am 16.1 11.4 7.6 57 4.2 NW 22 33 12 18 1019.4 1019.3 0.0
25/09:00am 16.0 11.2 7.2 56 4.4 NW 22 30 12 16 1019.3 1019.2 0.0
25/08:30am 15.1 11.6 7.2 59 3.9 NW 15 20 8 11 1019.5 1019.4 0.0
25/08:00am 13.8 11.0 6.9 63 3.4 WNW 11 19 6 10 1019.4 1019.3 0.0
25/07:30am 12.8 9.9 6.4 65 3.0 NW 11 13 6 7 1019.2 1019.1 0.0
25/07:00am 11.7 8.6 5.6 66 2.8 NW 11 13 6 7 1019.2 1019.1 0.0
25/06:30am 10.6 8.3 4.7 67 2.7 NNW 6 7 3 4 1019.1 1019.0 0.0
25/06:00am 11.0 8.1 4.5 64 2.9 NNW 9 13 5 7 1018.9 1018.8 0.0
25/05:30am 11.9 8.2 4.6 61 3.3 NW 13 13 7 7 1019.2 1019.1 0.0
25/05:00am 11.9 9.3 4.4 60 3.4 NW 7 9 4 5 1019.3 1019.2 0.0
25/04:30am 11.7 9.1 4.4 61 3.3 NW 7 9 4 5 1019.8 1019.7 0.0
25/04:00am 11.6 9.1 3.9 59 3.4 NNW 6 7 3 4 1020.0 1019.9 0.0
25/03:30am 12.8 10.3 4.0 55 4.0 NW 6 7 3 4 1020.3 1020.2 0.0
25/03:00am 12.9 10.3 4.3 56 3.9 WNW 7 9 4 5 1020.5 1020.4 0.0
25/02:30am 12.8 9.9 4.5 57 3.8 WNW 9 11 5 6 1021.1 1021.0 0.0
25/02:00am 13.8 11.6 5.2 56 4.0 WNW 6 7 3 4 1021.3 1021.2 0.0
25/01:30am 14.3 12.9 5.4 55 4.2 W 2 4 1 2 1021.4 1021.3 0.0
25/01:00am 14.9 12.8 5.7 54 4.4 S 6 7 3 4 1021.6 1021.5 0.0
25/12:30am 15.0 12.7 5.8 54 4.4 S 7 13 4 7 1021.7 1021.6 0.0
25/12:00am 15.1 12.4 5.6 53 4.5 S 9 13 5 7 1022.0 1021.9 0.0
 
Date/Time
CDT
Temp
°C
App
Temp
°C
Dew
Point
Rel
Hum
%
Delta-T
°C
Wind Press
QNH
hPa
Press
MSL
hPa
Rain
since 9 am
mm
Dir
 
Spd
km/h
Gust
km/h
Spd
kts
Gust
kts
24/11:30pm 15.0 11.9 5.5 53 4.5 S 11 17 6 9 1021.9 1021.8 0.0
24/11:00pm 15.3 11.9 5.8 53 4.6 SSW 13 19 7 10 1022.1 1022.0 0.0

Other Formats:

Comma delimited format used in spreadsheet applications
http://www.bom.gov.au/fwo/IDS60801/IDS60801.95806.axf

JavaScript Object Notation format (JSON) in row-major order
http://www.bom.gov.au/fwo/IDS60801/IDS60801.95806.json